createdAt,value
2022-09-11T00:01:15.443Z,12.43
2022-09-11T00:03:19.902Z,12.42
2022-09-11T00:05:23.354Z,12.38
2022-09-11T00:07:28.235Z,12.37
2022-09-11T00:09:31.627Z,12.36
2022-09-11T00:11:37.472Z,12.33
2022-09-11T00:13:42.042Z,12.32
2022-09-11T00:15:47.500Z,12.32
2022-09-11T00:17:51.449Z,12.31
2022-09-11T00:19:54.883Z,12.29
2022-09-11T00:21:58.257Z,12.25
2022-09-11T00:24:01.532Z,12.21
2022-09-11T00:26:06.307Z,12.19
2022-09-11T00:28:13.379Z,12.19
2022-09-11T00:30:16.893Z,12.19
2022-09-11T00:32:21.633Z,12.18
2022-09-11T00:34:24.968Z,12.16
2022-09-11T00:36:31.679Z,12.14
2022-09-11T00:38:37.659Z,12.14
2022-09-11T00:40:47.333Z,12.13
2022-09-11T00:42:54.178Z,12.08
2022-09-11T00:45:07.463Z,12.06
2022-09-11T00:47:10.880Z,12.04
2022-09-11T00:49:28.152Z,11.99
2022-09-11T00:51:36.561Z,11.92
2022-09-11T00:53:39.935Z,11.87
2022-09-11T00:55:50.795Z,11.87
2022-09-11T00:57:58.858Z,11.88
2022-09-11T01:00:03.369Z,11.87
2022-09-11T01:02:08.135Z,11.85
2022-09-11T01:04:12.575Z,11.87
2022-09-11T01:06:17.924Z,11.90
2022-09-11T01:08:22.782Z,11.91
2022-09-11T01:10:35.390Z,11.91
2022-09-11T01:12:49.195Z,11.88
2022-09-11T01:14:57.333Z,11.88
2022-09-11T01:17:10.868Z,11.88
2022-09-11T01:19:28.128Z,11.86
2022-09-11T01:22:02.503Z,11.81
2022-09-11T01:24:19.417Z,11.79
2022-09-11T01:26:48.764Z,11.77
2022-09-11T01:28:58.607Z,11.76
2022-09-11T01:31:07.573Z,11.74
2022-09-11T01:33:19.218Z,11.70
2022-09-11T01:35:28.855Z,11.70
2022-09-11T01:37:38.381Z,11.69
2022-09-11T01:39:45.892Z,11.69
2022-09-11T01:41:54.336Z,11.70
2022-09-11T01:44:03.911Z,11.67
2022-09-11T01:46:09.427Z,11.64
2022-09-11T01:48:19.151Z,11.63
2022-09-11T01:50:25.952Z,11.61
2022-09-11T01:52:34.221Z,11.60
2022-09-11T01:54:43.441Z,11.58
2022-09-11T01:56:51.687Z,11.52
2022-09-11T01:59:02.416Z,11.54
2022-09-11T02:01:11.246Z,11.48
2022-09-11T02:03:20.853Z,11.39
2022-09-11T02:05:29.244Z,11.33
2022-09-11T02:07:39.806Z,11.30
2022-09-11T02:09:48.908Z,11.31
2022-09-11T02:11:56.404Z,11.33
2022-09-11T02:14:08.112Z,11.33
2022-09-11T02:16:19.404Z,11.34
2022-09-11T02:18:31.052Z,11.35
2022-09-11T02:20:34.698Z,11.36
2022-09-11T02:22:38.877Z,11.38
2022-09-11T02:24:42.655Z,11.38
2022-09-11T02:26:49.518Z,11.40
2022-09-11T02:28:53.850Z,11.39
2022-09-11T02:30:59.298Z,11.36
2022-09-11T02:33:03.171Z,11.34
2022-09-11T02:35:11.196Z,11.33
2022-09-11T02:37:27.010Z,11.30
2022-09-11T02:40:01.967Z,11.26
2022-09-11T02:42:21.578Z,11.27
2022-09-11T02:44:32.145Z,11.29
2022-09-11T02:46:54.052Z,11.31
2022-09-11T02:49:04.807Z,11.32
2022-09-11T02:51:16.604Z,11.32
2022-09-11T02:53:29.704Z,11.23
2022-09-11T02:55:42.888Z,11.18
2022-09-11T02:57:51.001Z,11.15
2022-09-11T02:59:57.120Z,11.11
2022-09-11T03:02:02.690Z,11.11
2022-09-11T03:04:07.611Z,11.13
2022-09-11T03:06:15.818Z,11.17
2022-09-11T03:08:20.064Z,11.21
2022-09-11T03:10:23.745Z,11.24
2022-09-11T03:12:28.831Z,11.28
2022-09-11T03:14:32.927Z,11.33
2022-09-11T03:16:37.027Z,11.41
2022-09-11T03:18:42.187Z,11.46
2022-09-11T03:20:47.624Z,11.50
2022-09-11T03:22:51.241Z,11.51
2022-09-11T03:24:54.873Z,11.54
2022-09-11T03:26:59.226Z,11.56
2022-09-11T03:29:05.524Z,11.59
2022-09-11T03:31:09.854Z,11.61
2022-09-11T03:33:14.328Z,11.61
2022-09-11T03:35:19.354Z,11.58
2022-09-11T03:37:22.873Z,11.60
2022-09-11T03:39:26.462Z,11.62
2022-09-11T03:41:30.176Z,11.67
2022-09-11T03:43:35.320Z,11.71
2022-09-11T03:45:38.880Z,11.76
2022-09-11T03:47:42.752Z,11.77
2022-09-11T03:49:46.527Z,11.78
2022-09-11T03:51:51.571Z,11.81
2022-09-11T03:53:57.449Z,11.85
2022-09-11T03:56:04.177Z,11.85
2022-09-11T03:58:14.426Z,11.87
2022-09-11T04:00:20.035Z,11.90
2022-09-11T04:02:32.067Z,11.88
2022-09-11T04:04:37.005Z,11.86
2022-09-11T04:06:41.387Z,11.83
2022-09-11T04:08:46.550Z,11.80
2022-09-11T04:10:50.548Z,11.79
2022-09-11T04:12:54.133Z,11.81
2022-09-11T04:14:59.090Z,11.83
2022-09-11T04:17:03.018Z,11.83
2022-09-11T04:19:06.723Z,11.85
2022-09-11T04:21:12.363Z,11.89
2022-09-11T04:23:19.194Z,11.89
2022-09-11T04:25:24.478Z,11.86
2022-09-11T04:27:28.474Z,11.80
2022-09-11T04:29:33.265Z,11.75
2022-09-11T04:31:38.550Z,11.75
2022-09-11T04:33:44.012Z,11.77
2022-09-11T04:35:48.101Z,11.78
2022-09-11T04:37:51.701Z,11.79
2022-09-11T04:39:55.421Z,11.79
2022-09-11T04:42:02.256Z,11.77
2022-09-11T04:44:06.597Z,11.72
2022-09-11T04:46:18.288Z,11.67
2022-09-11T04:48:22.301Z,11.67
2022-09-11T04:50:26.162Z,11.67
2022-09-11T04:52:47.230Z,11.68
2022-09-11T04:54:50.756Z,11.62
2022-09-11T04:56:54.913Z,11.56
2022-09-11T04:59:01.757Z,11.57
2022-09-11T05:01:08.612Z,11.55
2022-09-11T05:03:13.231Z,11.52
2022-09-11T05:05:17.156Z,11.51
2022-09-11T05:07:21.395Z,11.52
2022-09-11T05:09:28.469Z,11.59
2022-09-11T05:11:33.607Z,11.65
2022-09-11T05:13:37.324Z,11.70
2022-09-11T05:15:43.942Z,11.72
2022-09-11T05:17:48.696Z,11.69
2022-09-11T05:19:56.154Z,11.71
2022-09-11T05:22:00.357Z,11.76
2022-09-11T05:24:04.870Z,11.78
2022-09-11T05:26:16.280Z,11.76
2022-09-11T05:28:20.604Z,11.77
2022-09-11T05:30:24.930Z,11.84
2022-09-11T05:32:29.842Z,11.89
2022-09-11T05:34:33.675Z,11.94
2022-09-11T05:36:38.252Z,11.94
2022-09-11T05:38:42.283Z,11.91
2022-09-11T05:40:47.027Z,11.88
2022-09-11T05:42:50.803Z,11.90
2022-09-11T05:44:55.039Z,11.96
2022-09-11T05:47:00.202Z,12.01
2022-09-11T05:49:05.847Z,12.07
2022-09-11T05:51:17.104Z,12.13
2022-09-11T05:53:21.492Z,12.15
2022-09-11T05:55:25.297Z,12.19
2022-09-11T05:57:29.028Z,12.26
2022-09-11T05:59:33.091Z,12.37
2022-09-11T06:01:36.683Z,12.46
2022-09-11T06:03:52.356Z,12.53
2022-09-11T06:06:01.320Z,12.63
2022-09-11T06:08:05.240Z,12.71
2022-09-11T06:10:10.162Z,12.78
2022-09-11T06:12:13.674Z,12.86
2022-09-11T06:14:19.620Z,12.95
2022-09-11T06:16:25.246Z,13.01
2022-09-11T06:18:32.014Z,13.09
2022-09-11T06:20:35.724Z,13.16
2022-09-11T06:22:40.790Z,13.25
2022-09-11T06:24:47.377Z,13.32
2022-09-11T06:26:52.533Z,13.38
2022-09-11T06:28:57.322Z,13.45
2022-09-11T06:31:02.583Z,13.49
2022-09-11T06:33:07.460Z,13.52
2022-09-11T06:35:11.974Z,13.54
2022-09-11T06:37:15.800Z,13.55
2022-09-11T06:39:23.135Z,13.56
2022-09-11T06:41:29.301Z,13.61
2022-09-11T06:43:38.871Z,13.61
2022-09-11T06:45:43.809Z,13.61
2022-09-11T06:47:48.718Z,13.60
2022-09-11T06:49:53.457Z,13.53
2022-09-11T06:52:15.052Z,13.52
2022-09-11T06:54:28.185Z,13.51
2022-09-11T06:56:33.564Z,13.52
2022-09-11T06:58:39.978Z,13.53
2022-09-11T07:00:44.103Z,13.52
2022-09-11T07:02:50.351Z,13.52
2022-09-11T07:04:54.284Z,13.54
2022-09-11T07:07:00.544Z,13.55
2022-09-11T07:09:05.915Z,13.58
2022-09-11T07:11:18.028Z,13.62
2022-09-11T07:13:24.662Z,13.64
2022-09-11T07:15:29.027Z,13.69
2022-09-11T07:17:34.557Z,13.74
2022-09-11T07:19:38.850Z,13.75
2022-09-11T07:21:43.767Z,13.76
2022-09-11T07:23:49.753Z,13.75
2022-09-11T07:25:54.546Z,13.75
2022-09-11T07:28:01.011Z,13.74
2022-09-11T07:30:04.777Z,13.75
2022-09-11T07:32:13.494Z,13.78
2022-09-11T07:34:17.918Z,13.83
2022-09-11T07:36:23.445Z,13.86
2022-09-11T07:38:32.189Z,13.90
2022-09-11T07:40:38.254Z,13.93
2022-09-11T07:42:42.764Z,13.95
2022-09-11T07:44:51.116Z,13.97
2022-09-11T07:46:55.086Z,13.97
2022-09-11T07:48:59.944Z,13.97
2022-09-11T07:51:08.347Z,13.98
2022-09-11T07:53:14.281Z,13.97
2022-09-11T07:55:18.887Z,13.96
2022-09-11T07:57:24.596Z,13.93
2022-09-11T07:59:29.779Z,13.91
2022-09-11T08:01:36.119Z,13.87
2022-09-11T08:03:43.457Z,13.85
2022-09-11T08:05:47.918Z,13.86
2022-09-11T08:07:52.293Z,13.92
2022-09-11T08:10:23.407Z,13.99
2022-09-11T08:12:21.832Z,14.07
2022-09-11T08:14:27.704Z,14.12
2022-09-11T08:16:38.094Z,14.18
2022-09-11T08:18:42.399Z,14.26
2022-09-11T08:20:46.564Z,14.32
2022-09-11T08:22:50.850Z,14.38
2022-09-11T08:24:55.668Z,14.45
2022-09-11T08:27:00.703Z,14.53
2022-09-11T08:29:07.230Z,14.60
2022-09-11T08:31:12.782Z,14.67
2022-09-11T08:33:19.582Z,14.72
2022-09-11T08:35:23.778Z,14.79
2022-09-11T08:37:27.864Z,14.84
2022-09-11T08:39:32.527Z,14.93
2022-09-11T08:41:48.435Z,15.01
2022-09-11T08:43:56.843Z,15.07
2022-09-11T08:46:05.244Z,15.13
2022-09-11T08:48:11.659Z,15.19
2022-09-11T08:50:24.831Z,15.20
2022-09-11T08:52:29.820Z,15.27
2022-09-11T08:54:36.779Z,15.33
2022-09-11T08:56:44.488Z,15.36
2022-09-11T08:59:07.686Z,15.39
2022-09-11T09:01:24.864Z,15.40
2022-09-11T09:03:55.960Z,15.38
2022-09-11T09:06:25.371Z,15.37
2022-09-11T09:08:54.338Z,15.43
2022-09-11T09:11:06.547Z,15.47
2022-09-11T09:13:25.419Z,15.50
2022-09-11T09:15:39.468Z,15.52
2022-09-11T09:17:47.033Z,15.54
2022-09-11T09:19:57.502Z,15.53
2022-09-11T09:22:12.468Z,15.51
2022-09-11T09:24:21.942Z,15.48
2022-09-11T09:26:38.317Z,15.45
2022-09-11T09:28:47.254Z,15.42
2022-09-11T09:30:55.188Z,15.38
2022-09-11T09:33:05.375Z,15.37
2022-09-11T09:35:19.291Z,15.37
2022-09-11T09:37:26.632Z,15.37
2022-09-11T09:39:31.043Z,15.37
2022-09-11T09:41:57.173Z,15.38
2022-09-11T09:44:06.298Z,15.39
2022-09-11T09:46:21.409Z,15.42
2022-09-11T09:48:26.183Z,15.37
2022-09-11T09:50:34.060Z,15.35
2022-09-11T09:52:39.792Z,15.37
2022-09-11T09:54:44.775Z,15.36
2022-09-11T09:56:58.239Z,15.33
2022-09-11T09:59:05.092Z,15.30
2022-09-11T10:01:45.255Z,15.24
2022-09-11T10:04:13.344Z,15.16
2022-09-11T10:06:23.751Z,15.12
2022-09-11T10:08:36.185Z,15.07
2022-09-11T10:10:42.700Z,15.03
2022-09-11T10:12:47.348Z,14.99
2022-09-11T10:14:55.734Z,14.95
2022-09-11T10:17:00.330Z,14.94
2022-09-11T10:19:04.486Z,14.93
2022-09-11T10:21:29.929Z,14.89
2022-09-11T10:23:46.975Z,14.85
2022-09-11T10:25:52.694Z,14.82
2022-09-11T10:28:09.389Z,14.77
2022-09-11T10:30:40.058Z,14.74
2022-09-11T10:32:45.269Z,14.71
2022-09-11T10:34:50.075Z,14.67
2022-09-11T10:36:55.689Z,14.63
2022-09-11T10:39:03.121Z,14.60
2022-09-11T10:41:11.488Z,14.58
2022-09-11T10:43:26.217Z,14.58
2022-09-11T10:45:32.107Z,14.55
2022-09-11T10:47:36.455Z,14.54
2022-09-11T10:49:40.447Z,14.52
2022-09-11T10:51:59.088Z,14.52
2022-09-11T10:54:16.038Z,14.51
2022-09-11T10:56:20.363Z,14.50
2022-09-11T10:58:27.928Z,14.50
2022-09-11T11:00:33.708Z,14.49
2022-09-11T11:02:42.016Z,14.48
2022-09-11T11:04:47.364Z,14.46
2022-09-11T11:07:02.339Z,14.43
2022-09-11T11:09:32.123Z,14.38
2022-09-11T11:11:49.686Z,14.33
2022-09-11T11:14:13.558Z,14.28
2022-09-11T11:16:24.723Z,14.21
2022-09-11T11:18:44.166Z,14.17
2022-09-11T11:21:00.376Z,14.13
2022-09-11T11:23:29.402Z,14.10
2022-09-11T11:25:47.377Z,14.05
2022-09-11T11:28:13.219Z,14.03
2022-09-11T11:30:21.081Z,13.98
2022-09-11T11:32:48.663Z,13.94
2022-09-11T11:35:12.892Z,13.88
2022-09-11T11:37:21.729Z,13.85
2022-09-11T11:39:28.936Z,13.84
2022-09-11T11:41:39.681Z,13.82
2022-09-11T11:43:48.618Z,13.83
2022-09-11T11:45:58.742Z,13.80
2022-09-11T11:48:10.766Z,13.78
2022-09-11T11:50:22.306Z,13.78
2022-09-11T11:52:37.733Z,13.78
2022-09-11T11:54:53.231Z,13.79
2022-09-11T11:57:03.940Z,13.77
2022-09-11T11:59:17.455Z,13.77
2022-09-11T12:01:26.854Z,13.78
2022-09-11T12:03:39.870Z,13.78
2022-09-11T12:05:44.620Z,13.79
2022-09-11T12:07:49.469Z,13.81
2022-09-11T12:09:56.399Z,13.83
2022-09-11T12:12:09.702Z,13.85
2022-09-11T12:14:28.087Z,13.87
2022-09-11T12:16:35.094Z,13.87
2022-09-11T12:18:42.663Z,13.87
2022-09-11T12:20:48.067Z,13.86
2022-09-11T12:22:53.208Z,13.87
2022-09-11T12:24:59.978Z,13.87
2022-09-11T12:27:43.374Z,13.86
2022-09-11T12:29:59.415Z,13.85
2022-09-11T12:32:39.609Z,13.85
2022-09-11T12:35:16.068Z,13.87
2022-09-11T12:37:29.244Z,13.91
2022-09-11T12:39:37.732Z,13.97
2022-09-11T12:41:42.782Z,14.00
2022-09-11T12:43:49.623Z,14.05
2022-09-11T12:45:55.031Z,14.10
2022-09-11T12:48:07.225Z,14.13
2022-09-11T12:50:20.266Z,14.19
2022-09-11T12:52:34.276Z,14.24
2022-09-11T12:54:44.780Z,14.29
2022-09-11T12:56:51.347Z,14.38
2022-09-11T12:58:59.099Z,14.44
2022-09-11T13:01:18.876Z,14.53
2022-09-11T13:03:25.784Z,14.62
2022-09-11T13:05:34.829Z,14.68
2022-09-11T13:07:44.604Z,14.72
2022-09-11T13:09:51.019Z,14.79
2022-09-11T13:11:56.459Z,14.83
2022-09-11T13:14:46.867Z,14.89
2022-09-11T13:16:51.979Z,14.94
2022-09-11T13:19:01.534Z,15.00
2022-09-11T13:21:17.594Z,15.04
2022-09-11T13:23:21.582Z,15.10
2022-09-11T13:25:26.954Z,15.16
2022-09-11T13:27:30.680Z,15.22
2022-09-11T13:29:37.485Z,15.34
2022-09-11T13:31:41.416Z,15.45
2022-09-11T13:33:51.368Z,15.51
2022-09-11T13:35:56.302Z,15.62
2022-09-11T13:38:03.677Z,15.72
2022-09-11T13:40:17.279Z,15.81
2022-09-11T13:42:25.956Z,15.89
2022-09-11T13:44:39.812Z,15.99
2022-09-11T13:46:52.024Z,16.03
2022-09-11T13:49:12.432Z,16.03
2022-09-11T13:51:19.593Z,16.04
2022-09-11T13:53:24.501Z,16.05
2022-09-11T13:55:28.793Z,16.06
2022-09-11T13:57:34.215Z,16.07
2022-09-11T13:59:41.845Z,16.10
2022-09-11T14:01:55.873Z,16.11
2022-09-11T14:04:02.104Z,16.14
2022-09-11T14:06:12.384Z,16.15
2022-09-11T14:08:25.121Z,16.16
2022-09-11T14:10:32.093Z,16.17
2022-09-11T14:12:47.834Z,16.16
2022-09-11T14:14:54.937Z,16.17
2022-09-11T14:17:02.034Z,16.18
2022-09-11T14:19:15.980Z,16.21
2022-09-11T14:21:23.150Z,16.24
2022-09-11T14:23:29.491Z,16.28
2022-09-11T14:25:34.486Z,16.31
2022-09-11T14:27:44.947Z,16.32
2022-09-11T14:29:56.062Z,16.32
2022-09-11T14:32:31.425Z,16.34
2022-09-11T14:34:37.495Z,16.34
2022-09-11T14:36:44.432Z,16.34
2022-09-11T14:38:49.301Z,16.34
2022-09-11T14:40:56.971Z,16.34
2022-09-11T14:43:01.596Z,16.36
2022-09-11T14:45:09.953Z,16.36
2022-09-11T14:47:19.319Z,16.38
2022-09-11T14:49:23.425Z,16.41
2022-09-11T14:51:29.341Z,16.44
2022-09-11T14:53:35.220Z,16.48
2022-09-11T14:55:39.197Z,16.53
2022-09-11T14:57:43.108Z,16.61
2022-09-11T14:59:47.349Z,16.69
2022-09-11T15:01:52.372Z,16.81
2022-09-11T15:03:57.290Z,16.95
2022-09-11T15:06:01.454Z,17.04
2022-09-11T15:08:06.761Z,17.11
2022-09-11T15:10:12.074Z,17.18
2022-09-11T15:12:17.067Z,17.23
2022-09-11T15:14:44.792Z,17.28
2022-09-11T15:16:46.582Z,17.35
2022-09-11T15:18:51.137Z,17.41
2022-09-11T15:20:55.312Z,17.46
2022-09-11T15:22:59.121Z,17.49
2022-09-11T15:25:04.484Z,17.51
2022-09-11T15:27:10.646Z,17.54
2022-09-11T15:29:15.017Z,17.54
2022-09-11T15:31:19.987Z,17.54
2022-09-11T15:33:24.475Z,17.56
2022-09-11T15:35:32.758Z,17.53
2022-09-11T15:37:37.514Z,17.52
2022-09-11T15:39:41.754Z,17.52
2022-09-11T15:41:48.253Z,17.51
2022-09-11T15:43:52.669Z,17.51
2022-09-11T15:45:57.076Z,17.50
2022-09-11T15:48:01.212Z,17.49
2022-09-11T15:50:07.105Z,17.49
2022-09-11T15:52:11.916Z,17.51
2022-09-11T15:54:17.728Z,17.56
2022-09-11T15:56:25.965Z,17.60
2022-09-11T15:58:32.595Z,17.65
2022-09-11T16:00:38.021Z,17.67
2022-09-11T16:02:42.503Z,17.69
2022-09-11T16:04:51.651Z,17.72
2022-09-11T16:06:58.183Z,17.74
2022-09-11T16:09:05.315Z,17.76
2022-09-11T16:11:12.441Z,17.79
2022-09-11T16:13:17.538Z,17.82
2022-09-11T16:15:23.618Z,17.84
2022-09-11T16:17:31.589Z,17.87
2022-09-11T16:19:37.199Z,17.89
2022-09-11T16:21:41.136Z,17.90
2022-09-11T16:23:51.157Z,17.88
2022-09-11T16:25:58.253Z,17.87
2022-09-11T16:28:03.300Z,17.88
2022-09-11T16:30:39.112Z,17.87
2022-09-11T16:32:39.785Z,17.87
2022-09-11T16:34:44.181Z,17.86
2022-09-11T16:36:49.667Z,17.83
2022-09-11T16:38:55.275Z,17.80
2022-09-11T16:41:04.795Z,17.76
2022-09-11T16:43:08.789Z,17.74
2022-09-11T16:45:13.113Z,17.72
2022-09-11T16:47:18.252Z,17.69
2022-09-11T16:49:24.562Z,17.68
2022-09-11T16:51:33.833Z,17.68
2022-09-11T16:53:38.888Z,17.67
2022-09-11T16:55:42.949Z,17.67
2022-09-11T16:57:48.430Z,17.65
2022-09-11T16:59:52.681Z,17.64
2022-09-11T17:01:58.103Z,17.61
2022-09-11T17:04:04.054Z,17.59
2022-09-11T17:06:10.801Z,17.58
2022-09-11T17:08:14.822Z,17.57
2022-09-11T17:10:20.041Z,17.56
2022-09-11T17:12:24.947Z,17.57
2022-09-11T17:14:30.568Z,17.57
2022-09-11T17:16:35.924Z,17.61
2022-09-11T17:18:40.302Z,17.59
2022-09-11T17:20:44.666Z,17.59
2022-09-11T17:22:51.974Z,17.59
2022-09-11T17:24:59.650Z,17.60
2022-09-11T17:27:23.470Z,17.59
2022-09-11T17:29:27.772Z,17.59
2022-09-11T17:31:32.700Z,17.59
2022-09-11T17:33:38.287Z,17.61
2022-09-11T17:35:44.501Z,17.62
2022-09-11T17:38:05.378Z,17.59
2022-09-11T17:40:12.729Z,17.60
2022-09-11T17:42:21.166Z,17.57
2022-09-11T17:44:28.277Z,17.56
2022-09-11T17:46:34.511Z,17.55
2022-09-11T17:48:40.149Z,17.54
2022-09-11T17:50:47.564Z,17.52
2022-09-11T17:52:54.358Z,17.50
2022-09-11T17:54:58.892Z,17.52
2022-09-11T17:57:03.925Z,17.51
2022-09-11T17:59:08.625Z,17.47
2022-09-11T18:01:16.844Z,17.47
2022-09-11T18:03:23.696Z,17.47
2022-09-11T18:05:31.243Z,17.46
2022-09-11T18:07:36.021Z,17.45
2022-09-11T18:09:42.386Z,17.46
2022-09-11T18:11:48.556Z,17.46
2022-09-11T18:13:53.393Z,17.46
2022-09-11T18:15:58.415Z,17.44
2022-09-11T18:18:03.000Z,17.43
2022-09-11T18:20:10.620Z,17.41
2022-09-11T18:22:16.574Z,17.40
2022-09-11T18:24:30.261Z,17.39
2022-09-11T18:26:41.247Z,17.36
2022-09-11T18:28:45.849Z,17.35
2022-09-11T18:30:56.788Z,17.34
2022-09-11T18:33:05.751Z,17.32
2022-09-11T18:35:13.069Z,17.30
2022-09-11T18:37:18.779Z,17.28
2022-09-11T18:39:24.193Z,17.26
2022-09-11T18:41:30.866Z,17.23
2022-09-11T18:43:39.357Z,17.20
2022-09-11T18:45:49.698Z,17.19
2022-09-11T18:47:56.465Z,17.16
2022-09-11T18:50:01.439Z,17.14
2022-09-11T18:52:09.027Z,17.13
2022-09-11T18:54:17.529Z,17.11
2022-09-11T18:56:25.068Z,17.09
2022-09-11T18:58:33.735Z,17.07
2022-09-11T19:00:41.634Z,17.06
2022-09-11T19:02:47.952Z,17.03
2022-09-11T19:04:53.601Z,17.02
2022-09-11T19:07:00.558Z,17.01
2022-09-11T19:09:11.805Z,17.00
2022-09-11T19:11:23.080Z,16.98
2022-09-11T19:13:28.421Z,16.97
2022-09-11T19:15:38.684Z,16.98
2022-09-11T19:17:49.518Z,16.96
2022-09-11T19:19:54.809Z,16.92
2022-09-11T19:22:00.401Z,16.92
2022-09-11T19:24:10.894Z,16.91
2022-09-11T19:26:18.232Z,16.88
2022-09-11T19:28:22.400Z,16.87
2022-09-11T19:30:26.876Z,16.85
2022-09-11T19:32:31.849Z,16.83
2022-09-11T19:34:46.426Z,16.83
2022-09-11T19:36:53.398Z,16.82
2022-09-11T19:39:00.477Z,16.81
2022-09-11T19:41:06.828Z,16.81
2022-09-11T19:43:12.592Z,16.81
2022-09-11T19:45:17.817Z,16.81
2022-09-11T19:47:23.654Z,16.79
2022-09-11T19:49:28.450Z,16.77
2022-09-11T19:51:36.313Z,16.78
2022-09-11T19:53:41.803Z,16.75
2022-09-11T19:55:46.582Z,16.74
2022-09-11T19:57:57.219Z,16.74
2022-09-11T20:00:06.255Z,16.72
2022-09-11T20:02:12.967Z,16.71
2022-09-11T20:04:19.547Z,16.70
2022-09-11T20:06:29.056Z,16.69
2022-09-11T20:08:35.930Z,16.70
2022-09-11T20:10:42.592Z,16.69
2022-09-11T20:12:46.760Z,16.71
2022-09-11T20:14:51.239Z,16.71
2022-09-11T20:16:56.329Z,16.72
2022-09-11T20:19:07.064Z,16.73
2022-09-11T20:21:15.749Z,16.72
2022-09-11T20:23:20.882Z,16.70
2022-09-11T20:25:27.688Z,16.70
2022-09-11T20:27:32.423Z,16.70
2022-09-11T20:29:38.774Z,16.69
2022-09-11T20:31:47.970Z,16.68
2022-09-11T20:33:53.722Z,16.68
2022-09-11T20:36:00.398Z,16.67
2022-09-11T20:38:04.741Z,16.67
2022-09-11T20:40:11.841Z,16.68
2022-09-11T20:42:18.105Z,16.68
2022-09-11T20:44:24.747Z,16.69
2022-09-11T20:46:29.300Z,16.70
2022-09-11T20:48:34.386Z,16.72
2022-09-11T20:50:38.268Z,16.73
2022-09-11T20:52:44.252Z,16.72
2022-09-11T20:54:49.227Z,16.71
2022-09-11T20:56:52.961Z,16.69
2022-09-11T20:58:58.193Z,16.70
2022-09-11T21:01:02.883Z,16.68
2022-09-11T21:03:07.043Z,16.68
2022-09-11T21:05:10.902Z,16.68
2022-09-11T21:07:14.641Z,16.68
2022-09-11T21:09:19.299Z,16.68
2022-09-11T21:11:22.967Z,16.68
2022-09-11T21:13:26.642Z,16.68
2022-09-11T21:15:31.687Z,16.70
2022-09-11T21:17:35.324Z,16.73
2022-09-11T21:19:38.718Z,16.73
2022-09-11T21:21:43.034Z,16.75
2022-09-11T21:23:47.217Z,16.76
2022-09-11T21:25:52.751Z,16.78
2022-09-11T21:27:56.754Z,16.81
2022-09-11T21:30:00.390Z,16.82
2022-09-11T21:32:05.536Z,16.82
2022-09-11T21:34:09.358Z,16.84
2022-09-11T21:36:12.977Z,16.84
2022-09-11T21:38:16.668Z,16.85
2022-09-11T21:40:20.347Z,16.84
2022-09-11T21:42:24.152Z,16.85
2022-09-11T21:44:27.642Z,16.85
2022-09-11T21:46:31.630Z,16.87
2022-09-11T21:48:38.015Z,16.87
2022-09-11T21:50:42.233Z,16.89
2022-09-11T21:52:45.738Z,16.89
2022-09-11T21:54:51.306Z,16.91
2022-09-11T21:56:54.857Z,16.90
2022-09-11T21:58:59.514Z,16.90
2022-09-11T22:01:06.001Z,16.88
2022-09-11T22:03:10.120Z,16.87
2022-09-11T22:05:15.153Z,16.86
2022-09-11T22:07:20.201Z,16.86
2022-09-11T22:09:23.895Z,16.85
2022-09-11T22:11:27.582Z,16.84
2022-09-11T22:13:31.888Z,16.84
2022-09-11T22:15:35.392Z,16.84
2022-09-11T22:17:38.927Z,16.83
2022-09-11T22:19:46.029Z,16.85
2022-09-11T22:21:51.000Z,16.87
2022-09-11T22:23:56.108Z,16.87
2022-09-11T22:26:00.954Z,16.90
2022-09-11T22:28:04.917Z,16.89
2022-09-11T22:30:09.899Z,16.91
2022-09-11T22:32:13.543Z,16.92
2022-09-11T22:34:17.150Z,16.92
2022-09-11T22:36:23.808Z,16.93
2022-09-11T22:38:28.657Z,16.94
2022-09-11T22:40:32.210Z,16.95
2022-09-11T22:42:37.806Z,16.95
2022-09-11T22:44:42.243Z,16.94
2022-09-11T22:46:48.709Z,16.94
2022-09-11T22:48:52.594Z,16.95
2022-09-11T22:50:57.698Z,16.95
2022-09-11T22:53:01.419Z,16.95
2022-09-11T22:55:07.563Z,16.93
2022-09-11T22:57:11.358Z,16.91
2022-09-11T22:59:15.040Z,16.88
2022-09-11T23:01:22.258Z,16.87
2022-09-11T23:03:25.963Z,16.85
2022-09-11T23:05:46.816Z,16.85
2022-09-11T23:07:52.318Z,16.84
2022-09-11T23:09:55.908Z,16.83
2022-09-11T23:12:01.389Z,16.83
2022-09-11T23:14:05.182Z,16.84
2022-09-11T23:16:13.541Z,16.86
2022-09-11T23:18:17.072Z,16.87
2022-09-11T23:20:20.797Z,16.87
2022-09-11T23:22:24.345Z,16.86
2022-09-11T23:24:27.900Z,16.86
2022-09-11T23:26:32.012Z,16.86
2022-09-11T23:28:37.444Z,16.85
2022-09-11T23:30:41.393Z,16.87
2022-09-11T23:32:44.966Z,16.84
2022-09-11T23:34:48.556Z,16.85
2022-09-11T23:36:52.059Z,16.84
2022-09-11T23:38:56.350Z,16.83
2022-09-11T23:40:59.828Z,16.82
2022-09-11T23:43:03.515Z,16.81
2022-09-11T23:45:10.319Z,16.79
2022-09-11T23:47:13.983Z,16.78
2022-09-11T23:49:17.725Z,16.77
2022-09-11T23:51:21.403Z,16.75
2022-09-11T23:53:24.929Z,16.74
2022-09-11T23:55:28.693Z,16.74
2022-09-11T23:57:32.122Z,16.72
2022-09-11T23:59:36.340Z,16.72
